Richland Springs, Texas
Current Conditions -  °F | °C
As of 4:15 AM on Sunday 25 Jan 2015 (Local Time) from KBBD Reporting Station
Clear Clear  
Wind Chill:   Ceiling: Unl
Heat Index:   Visibility: 10mi
Dew Point:   Wind: 5mph
Humidity: 75%   Direction: 240°WSW
Pressure: 30.02"   Gusts: NA
Location:  31.27°N, 98.95°W
Report Text: KBBD 251015Z AUTO 24004KT 10SM CLR 04/00 A3002 RMK
Loading
Personal Weather Stations






























Interactive Weather Map New forecast layout! Learn more

10-Day Weather Forecast

Advertisements
Track Severe Weather on mobile